TRA33T EHEH-LKPR
Flight info
| Callsign | TRA33T |
|---|---|
| Flight time | 1h 5m |
| Altitude | 23000 |
| Route | VELNI Y869 SUMOP L179 ERKUM/N0434F370 L179 MEVEL Z44 HMM DCT NOMKA DCT SUVUT L620 PIKIB T620 LALUK DCT GOLOP |
| Aircraft | B738/M-SDE2E3FGHIJ1RWXY/LB1 |
Departure
| Time | 2026-05-04 10:57 |
|---|---|
| Airport | Eindhoven Airport (EHEH) |
Arrival
| Time | 2026-05-04 12:03 |
|---|---|
| Airport | Václav Havel Airport Prague (LKPR) |
| Time | Latitude | Longitude | Altitude | Speed | Heading |
|---|---|---|---|---|---|
| 2026-05-04 10:19 | 51.45888 | 5.39099 | 74 ft | 0 kts | 125° |
| 2026-05-04 10:51 | 51.45929 | 5.38999 | 74 ft | 4 kts | 79° |
| 2026-05-04 10:52 | 51.45915 | 5.38970 | 63 ft | 4 kts | 33° |
| 2026-05-04 10:52 | 51.45903 | 5.38957 | 74 ft | 0 kts | 35° |
| 2026-05-04 10:56 | 51.46098 | 5.38673 | 66 ft | 6 kts | 251° |
| 2026-05-04 10:56 | 51.46073 | 5.38639 | 74 ft | 3 kts | 215° |
| 2026-05-04 10:56 | 51.46055 | 5.38618 | 67 ft | 5 kts | 216° |
| 2026-05-04 10:57 | 51.45915 | 5.38458 | 75 ft | 58 kts | 215° |
| 2026-05-04 10:57 | 51.45388 | 5.37873 | 75 ft | 124 kts | 215° |
| 2026-05-04 10:57 | 51.44564 | 5.36948 | 288 ft | 155 kts | 215° |
| 2026-05-04 10:57 | 51.43687 | 5.35925 | 1013 ft | 159 kts | 215° |
| 2026-05-04 10:58 | 51.42732 | 5.34874 | 1642 ft | 176 kts | 214° |
| 2026-05-04 10:58 | 51.41638 | 5.33659 | 2027 ft | 207 kts | 215° |
| 2026-05-04 10:58 | 51.40383 | 5.32347 | 2595 ft | 220 kts | 205° |
| 2026-05-04 10:58 | 51.38870 | 5.32070 | 3251 ft | 226 kts | 166° |
| 2026-05-04 10:59 | 51.37534 | 5.33375 | 4037 ft | 230 kts | 131° |
| 2026-05-04 10:59 | 51.36935 | 5.35731 | 4831 ft | 236 kts | 97° |
| 2026-05-04 10:59 | 51.36886 | 5.38382 | 5597 ft | 240 kts | 91° |
| 2026-05-04 10:59 | 51.36890 | 5.41072 | 6369 ft | 244 kts | 91° |
| 2026-05-04 11:00 | 51.36892 | 5.43806 | 7091 ft | 247 kts | 91° |
| 2026-05-04 11:01 | 51.36825 | 5.64930 | 10746 ft | 330 kts | 86° |
| 2026-05-04 11:02 | 51.37498 | 5.68584 | 11268 ft | 341 kts | 65° |
| 2026-05-04 11:02 | 51.38502 | 5.71954 | 11982 ft | 345 kts | 64° |
| 2026-05-04 11:05 | 51.53434 | 6.25336 | 21322 ft | 403 kts | 83° |
| 2026-05-04 11:06 | 51.53854 | 6.29822 | 21831 ft | 409 kts | 84° |
| 2026-05-04 11:06 | 51.54278 | 6.34374 | 22358 ft | 415 kts | 85° |
| 2026-05-04 11:06 | 51.54513 | 6.38924 | 22943 ft | 414 kts | 94° |
| 2026-05-04 11:06 | 51.54455 | 6.43617 | 23520 ft | 417 kts | 96° |
| 2026-05-04 11:08 | 51.53968 | 6.77192 | 26587 ft | 443 kts | 95° |
| 2026-05-04 11:10 | 51.53607 | 7.12828 | 29313 ft | 467 kts | 95° |
| 2026-05-04 11:12 | 51.53107 | 7.49986 | 31500 ft | 483 kts | 96° |
| 2026-05-04 11:12 | 51.53026 | 7.55386 | 31895 ft | 483 kts | 96° |
| 2026-05-04 11:12 | 51.52947 | 7.60772 | 32362 ft | 481 kts | 96° |
| 2026-05-04 11:12 | 51.52870 | 7.66119 | 32825 ft | 479 kts | 96° |
| 2026-05-04 11:13 | 51.52781 | 7.71462 | 33210 ft | 478 kts | 96° |
| 2026-05-04 11:13 | 51.52684 | 7.76807 | 33548 ft | 479 kts | 96° |
| 2026-05-04 11:13 | 51.52583 | 7.82157 | 33875 ft | 478 kts | 96° |
| 2026-05-04 11:13 | 51.52484 | 7.87494 | 34193 ft | 477 kts | 96° |
| 2026-05-04 11:14 | 51.52388 | 7.92814 | 34505 ft | 477 kts | 96° |
| 2026-05-04 11:14 | 51.52287 | 7.98124 | 34819 ft | 476 kts | 96° |
| 2026-05-04 11:14 | 51.52183 | 8.03430 | 35109 ft | 475 kts | 96° |
| 2026-05-04 11:16 | 51.51446 | 8.38622 | 36790 ft | 475 kts | 96° |
| 2026-05-04 11:16 | 51.51324 | 8.43930 | 37017 ft | 476 kts | 96° |
| 2026-05-04 11:16 | 51.51201 | 8.49265 | 36989 ft | 482 kts | 96° |
| 2026-05-04 11:17 | 51.50897 | 8.61826 | 36988 ft | 484 kts | 96° |
| 2026-05-04 11:19 | 51.49832 | 9.02779 | 36977 ft | 477 kts | 97° |
| 2026-05-04 11:19 | 51.49533 | 9.13401 | 36997 ft | 477 kts | 97° |
| 2026-05-04 11:20 | 51.49220 | 9.24036 | 36967 ft | 478 kts | 97° |
| 2026-05-04 11:20 | 51.48897 | 9.34681 | 36983 ft | 478 kts | 97° |
| 2026-05-04 11:22 | 51.47509 | 9.77381 | 36997 ft | 480 kts | 97° |
| 2026-05-04 11:23 | 51.47135 | 9.88090 | 36983 ft | 481 kts | 97° |
| 2026-05-04 11:25 | 51.45759 | 10.25613 | 36986 ft | 482 kts | 97° |
| 2026-05-04 11:25 | 51.45348 | 10.36349 | 36993 ft | 481 kts | 97° |
| 2026-05-04 11:27 | 51.39579 | 10.83007 | 36995 ft | 474 kts | 108° |
| 2026-05-04 11:28 | 51.37930 | 10.93230 | 36990 ft | 474 kts | 108° |
| 2026-05-04 11:28 | 51.36282 | 11.03446 | 36989 ft | 474 kts | 109° |
| 2026-05-04 11:29 | 51.34629 | 11.13647 | 36990 ft | 473 kts | 108° |
| 2026-05-04 11:29 | 51.32966 | 11.23809 | 36990 ft | 472 kts | 108° |
| 2026-05-04 11:33 | 51.21095 | 11.94701 | 37004 ft | 471 kts | 109° |
| 2026-05-04 11:33 | 51.19358 | 12.04778 | 36997 ft | 471 kts | 109° |
| 2026-05-04 11:34 | 51.17616 | 12.14828 | 36989 ft | 471 kts | 109° |
| 2026-05-04 11:34 | 51.15867 | 12.24867 | 37012 ft | 470 kts | 109° |
| 2026-05-04 11:35 | 51.14100 | 12.34887 | 37019 ft | 470 kts | 109° |
| 2026-05-04 11:35 | 51.12330 | 12.44901 | 37006 ft | 470 kts | 109° |
| 2026-05-04 11:36 | 51.10564 | 12.54884 | 37011 ft | 469 kts | 109° |
| 2026-05-04 11:36 | 51.09685 | 12.59815 | 36906 ft | 468 kts | 109° |
| 2026-05-04 11:36 | 51.08780 | 12.64863 | 36354 ft | 467 kts | 109° |
| 2026-05-04 11:37 | 51.07888 | 12.69779 | 36017 ft | 460 kts | 109° |
| 2026-05-04 11:37 | 51.06999 | 12.74648 | 35581 ft | 456 kts | 109° |
| 2026-05-04 11:37 | 51.06123 | 12.79466 | 35172 ft | 452 kts | 109° |
| 2026-05-04 11:37 | 51.05247 | 12.84251 | 34767 ft | 449 kts | 110° |
| 2026-05-04 11:38 | 51.04376 | 12.88998 | 34352 ft | 446 kts | 109° |
| 2026-05-04 11:38 | 51.03509 | 12.93715 | 33948 ft | 443 kts | 109° |
| 2026-05-04 11:38 | 51.02662 | 12.98335 | 33493 ft | 440 kts | 109° |
| 2026-05-04 11:38 | 51.01796 | 13.03036 | 33045 ft | 436 kts | 109° |
| 2026-05-04 11:39 | 51.00948 | 13.07639 | 32651 ft | 433 kts | 109° |
| 2026-05-04 11:39 | 51.00115 | 13.12152 | 32265 ft | 429 kts | 109° |
| 2026-05-04 11:40 | 50.95186 | 13.38872 | 29977 ft | 413 kts | 108° |
| 2026-05-04 11:41 | 50.94421 | 13.43240 | 29547 ft | 410 kts | 108° |
| 2026-05-04 11:41 | 50.93648 | 13.47640 | 29142 ft | 406 kts | 108° |
| 2026-05-04 11:41 | 50.92872 | 13.51917 | 28755 ft | 402 kts | 109° |
| 2026-05-04 11:41 | 50.92087 | 13.56089 | 28381 ft | 399 kts | 110° |
| 2026-05-04 11:42 | 50.91294 | 13.60281 | 27992 ft | 396 kts | 110° |
| 2026-05-04 11:42 | 50.90510 | 13.64435 | 27603 ft | 393 kts | 109° |
| 2026-05-04 11:42 | 50.89677 | 13.68537 | 27224 ft | 388 kts | 116° |
| 2026-05-04 11:42 | 50.88480 | 13.72316 | 26854 ft | 381 kts | 126° |
| 2026-05-04 11:43 | 50.86928 | 13.75672 | 26486 ft | 375 kts | 134° |
| 2026-05-04 11:43 | 50.85258 | 13.78798 | 26124 ft | 371 kts | 135° |
| 2026-05-04 11:43 | 50.83534 | 13.81816 | 25652 ft | 369 kts | 141° |
| 2026-05-04 11:43 | 50.81596 | 13.84484 | 25117 ft | 369 kts | 145° |
| 2026-05-04 11:44 | 50.79605 | 13.87012 | 24698 ft | 363 kts | 146° |
| 2026-05-04 11:44 | 50.77637 | 13.89474 | 24183 ft | 359 kts | 146° |
| 2026-05-04 11:44 | 50.75665 | 13.91952 | 23290 ft | 371 kts | 145° |
| 2026-05-04 11:44 | 50.73593 | 13.94573 | 22109 ft | 388 kts | 145° |
| 2026-05-04 11:45 | 50.71496 | 13.97253 | 21616 ft | 386 kts | 144° |
| 2026-05-04 11:45 | 50.69423 | 13.99937 | 21150 ft | 383 kts | 143° |
| 2026-05-04 11:45 | 50.67373 | 14.02592 | 20746 ft | 380 kts | 144° |
| 2026-05-04 11:45 | 50.65332 | 14.05228 | 20363 ft | 378 kts | 144° |
| 2026-05-04 11:46 | 50.63303 | 14.07847 | 19975 ft | 377 kts | 144° |
| 2026-05-04 11:46 | 50.61283 | 14.10457 | 19581 ft | 375 kts | 144° |
| 2026-05-04 11:46 | 50.59271 | 14.13050 | 19203 ft | 373 kts | 144° |
| 2026-05-04 11:46 | 50.57263 | 14.15638 | 18829 ft | 372 kts | 143° |
| 2026-05-04 11:47 | 50.55266 | 14.18215 | 18450 ft | 371 kts | 144° |
| 2026-05-04 11:47 | 50.53278 | 14.20766 | 18031 ft | 369 kts | 144° |
| 2026-05-04 11:47 | 50.51297 | 14.23312 | 17610 ft | 366 kts | 143° |
| 2026-05-04 11:47 | 50.49340 | 14.25831 | 17226 ft | 362 kts | 143° |
| 2026-05-04 11:48 | 50.47397 | 14.28321 | 16844 ft | 357 kts | 143° |
| 2026-05-04 11:48 | 50.45505 | 14.30742 | 16467 ft | 345 kts | 144° |
| 2026-05-04 11:48 | 50.43636 | 14.32955 | 16098 ft | 330 kts | 154° |
| 2026-05-04 11:48 | 50.41538 | 14.34122 | 15801 ft | 316 kts | 172° |
| 2026-05-04 11:49 | 50.39377 | 14.34624 | 15472 ft | 312 kts | 175° |
| 2026-05-04 11:49 | 50.37227 | 14.35026 | 15133 ft | 311 kts | 176° |
| 2026-05-04 11:49 | 50.35082 | 14.35407 | 14803 ft | 309 kts | 176° |
| 2026-05-04 11:49 | 50.32953 | 14.35791 | 14471 ft | 307 kts | 176° |
| 2026-05-04 11:50 | 50.30839 | 14.36191 | 14141 ft | 306 kts | 175° |
| 2026-05-04 11:50 | 50.28739 | 14.36598 | 13823 ft | 300 kts | 175° |
| 2026-05-04 11:50 | 50.26695 | 14.37003 | 13355 ft | 295 kts | 175° |
| 2026-05-04 11:50 | 50.24672 | 14.37408 | 12796 ft | 292 kts | 176° |
| 2026-05-04 11:51 | 50.22659 | 14.37806 | 12245 ft | 290 kts | 176° |
| 2026-05-04 11:51 | 50.20674 | 14.38202 | 11772 ft | 286 kts | 175° |
| 2026-05-04 11:51 | 50.18712 | 14.38597 | 11254 ft | 283 kts | 176° |
| 2026-05-04 11:51 | 50.16752 | 14.38985 | 10724 ft | 283 kts | 176° |
| 2026-05-04 11:52 | 50.14821 | 14.39522 | 10229 ft | 283 kts | 163° |
| 2026-05-04 11:52 | 50.13174 | 14.41188 | 9694 ft | 289 kts | 139° |
| 2026-05-04 11:52 | 50.11877 | 14.43556 | 9198 ft | 289 kts | 130° |
| 2026-05-04 11:52 | 50.10686 | 14.46080 | 8664 ft | 289 kts | 129° |
| 2026-05-04 11:53 | 50.09510 | 14.48602 | 8147 ft | 287 kts | 129° |
| 2026-05-04 11:53 | 50.08325 | 14.51101 | 7629 ft | 286 kts | 130° |
| 2026-05-04 11:53 | 50.07135 | 14.53558 | 7141 ft | 284 kts | 130° |
| 2026-05-04 11:53 | 50.05941 | 14.56011 | 6695 ft | 285 kts | 130° |
| 2026-05-04 11:55 | 49.98026 | 14.71996 | 5071 ft | 239 kts | 136° |
| 2026-05-04 11:55 | 49.96645 | 14.73297 | 5001 ft | 232 kts | 169° |
| 2026-05-04 11:56 | 49.95046 | 14.73220 | 5005 ft | 232 kts | 201° |
| 2026-05-04 11:56 | 49.93749 | 14.71846 | 4999 ft | 223 kts | 233° |
| 2026-05-04 11:56 | 49.92990 | 14.69837 | 4970 ft | 211 kts | 244° |
| 2026-05-04 11:56 | 49.92351 | 14.67817 | 4979 ft | 207 kts | 244° |
| 2026-05-04 11:57 | 49.91917 | 14.65729 | 4976 ft | 207 kts | 267° |
| 2026-05-04 11:57 | 49.92088 | 14.63515 | 4960 ft | 211 kts | 290° |
| 2026-05-04 11:57 | 49.92943 | 14.61679 | 4998 ft | 212 kts | 311° |
| 2026-05-04 11:57 | 49.93872 | 14.59854 | 4976 ft | 213 kts | 304° |
| 2026-05-04 11:58 | 49.94732 | 14.57979 | 4998 ft | 214 kts | 304° |
| 2026-05-04 11:58 | 49.95613 | 14.56108 | 4977 ft | 216 kts | 305° |
| 2026-05-04 11:58 | 49.96493 | 14.54263 | 4999 ft | 215 kts | 304° |
| 2026-05-04 11:58 | 49.97377 | 14.52415 | 4934 ft | 210 kts | 304° |
| 2026-05-04 11:59 | 49.98244 | 14.50618 | 4688 ft | 204 kts | 305° |
| 2026-05-04 11:59 | 49.99078 | 14.48886 | 4451 ft | 200 kts | 305° |
| 2026-05-04 11:59 | 49.99901 | 14.47169 | 4180 ft | 197 kts | 305° |
| 2026-05-04 11:59 | 50.00711 | 14.45482 | 3929 ft | 193 kts | 306° |
| 2026-05-04 12:00 | 50.01526 | 14.43787 | 3663 ft | 194 kts | 305° |
| 2026-05-04 12:00 | 50.02324 | 14.42127 | 3409 ft | 193 kts | 306° |
| 2026-05-04 12:00 | 50.03122 | 14.40474 | 3142 ft | 188 kts | 307° |
| 2026-05-04 12:00 | 50.03886 | 14.38886 | 2907 ft | 179 kts | 307° |
| 2026-05-04 12:01 | 50.04611 | 14.37384 | 2687 ft | 170 kts | 307° |
| 2026-05-04 12:01 | 50.05312 | 14.35924 | 2490 ft | 169 kts | 308° |
| 2026-05-04 12:02 | 50.09028 | 14.28207 | 1298 ft | 156 kts | 309° |
| 2026-05-04 12:03 | 50.09651 | 14.26924 | 1214 ft | 133 kts | 307° |
| 2026-05-04 12:03 | 50.10068 | 14.26053 | 1192 ft | 74 kts | 307° |
| 2026-05-04 12:03 | 50.10273 | 14.25704 | 1187 ft | 31 kts | 334° |
| 2026-05-04 12:03 | 50.10417 | 14.25659 | 1185 ft | 13 kts | 4° |
| 2026-05-04 12:04 | 50.10485 | 14.25732 | 1184 ft | 13 kts | 74° |
| 2026-05-04 12:04 | 50.10501 | 14.25852 | 1184 ft | 6 kts | 78° |
| 2026-05-04 12:04 | 50.10508 | 14.25909 | 1183 ft | 2 kts | 78° |
| 2026-05-04 12:04 | 50.10510 | 14.25932 | 1182 ft | 2 kts | 91° |
| 2026-05-04 12:05 | 50.10505 | 14.25962 | 1183 ft | 4 kts | 110° |
| 2026-05-04 12:05 | 50.10475 | 14.26028 | 1184 ft | 10 kts | 127° |
| 2026-05-04 12:05 | 50.10423 | 14.26136 | 1186 ft | 14 kts | 127° |
| 2026-05-04 12:05 | 50.10366 | 14.26254 | 1188 ft | 13 kts | 127° |
| 2026-05-04 12:06 | 50.10311 | 14.26366 | 1191 ft | 13 kts | 128° |
| 2026-05-04 12:06 | 50.10257 | 14.26474 | 1193 ft | 12 kts | 126° |
| 2026-05-04 12:06 | 50.10262 | 14.26536 | 1194 ft | 7 kts | 36° |
| 2026-05-04 12:06 | 50.10300 | 14.26577 | 1191 ft | 7 kts | 35° |
| 2026-05-04 12:07 | 50.10323 | 14.26603 | 1189 ft | 1 kts | 34° |
| 2026-05-04 12:07 | 50.10348 | 14.26622 | 1175 ft | 7 kts | 10° |
| 2026-05-04 12:07 | 50.10380 | 14.26606 | 1176 ft | 5 kts | 355° |
| 2026-05-04 12:07 | 50.10406 | 14.26627 | 1177 ft | 2 kts | 35° |
| 2026-05-04 12:08 | 50.10412 | 14.26633 | 1177 ft | 0 kts | 34° |